sensor_id;sensor_type;location;lat;lon;timestamp;P1;durP1;ratioP1;P2;durP2;ratioP2
13959;SDS011;7052;51.050;3.716;2023-04-01T00:01:11;7.87;;;4.40;;
13959;SDS011;7052;51.050;3.716;2023-04-01T00:03:41;13.63;;;5.57;;
13959;SDS011;7052;51.050;3.716;2023-04-01T00:06:09;9.53;;;5.13;;
13959;SDS011;7052;51.050;3.716;2023-04-01T00:08:38;11.20;;;5.30;;
13959;SDS011;7052;51.050;3.716;2023-04-01T00:11:06;8.00;;;5.10;;
13959;SDS011;7052;51.050;3.716;2023-04-01T00:13:33;9.60;;;5.20;;
13959;SDS011;7052;51.050;3.716;2023-04-01T00:16:00;12.10;;;6.07;;
13959;SDS011;7052;51.050;3.716;2023-04-01T00:18:30;11.03;;;5.57;;
13959;SDS011;7052;51.050;3.716;2023-04-01T00:21:00;8.20;;;5.07;;
13959;SDS011;7052;51.050;3.716;2023-04-01T00:23:27;10.77;;;5.47;;
13959;SDS011;7052;51.050;3.716;2023-04-01T00:25:54;12.97;;;5.70;;
13959;SDS011;7052;51.050;3.716;2023-04-01T00:28:24;9.37;;;5.17;;
13959;SDS011;7052;51.050;3.716;2023-04-01T00:30:54;7.83;;;5.10;;
13959;SDS011;7052;51.050;3.716;2023-04-01T00:33:21;8.23;;;4.70;;
13959;SDS011;7052;51.050;3.716;2023-04-01T00:35:50;8.40;;;4.33;;
13959;SDS011;7052;51.050;3.716;2023-04-01T00:38:18;9.60;;;4.03;;
13959;SDS011;7052;51.050;3.716;2023-04-01T00:40:45;7.80;;;4.10;;
13959;SDS011;7052;51.050;3.716;2023-04-01T00:43:14;12.03;;;4.23;;
13959;SDS011;7052;51.050;3.716;2023-04-01T00:45:43;10.07;;;4.30;;
13959;SDS011;7052;51.050;3.716;2023-04-01T00:48:11;11.53;;;4.40;;
13959;SDS011;7052;51.050;3.716;2023-04-01T00:50:42;5.70;;;4.43;;
13959;SDS011;7052;51.050;3.716;2023-04-01T00:53:17;9.37;;;4.37;;
13959;SDS011;7052;51.050;3.716;2023-04-01T00:55:49;8.63;;;4.13;;
13959;SDS011;7052;51.050;3.716;2023-04-01T00:58:24;7.77;;;3.57;;
13959;SDS011;7052;51.050;3.716;2023-04-01T01:00:54;6.43;;;3.70;;
13959;SDS011;7052;51.050;3.716;2023-04-01T01:03:22;8.00;;;3.90;;
13959;SDS011;7052;51.050;3.716;2023-04-01T01:05:55;5.87;;;3.40;;
13959;SDS011;7052;51.050;3.716;2023-04-01T01:09:05;3.93;;;3.00;;
13959;SDS011;7052;51.050;3.716;2023-04-01T01:11:40;7.10;;;4.10;;
13959;SDS011;7052;51.050;3.716;2023-04-01T01:14:13;7.70;;;4.20;;
13959;SDS011;7052;51.050;3.716;2023-04-01T01:16:52;8.20;;;4.30;;
13959;SDS011;7052;51.050;3.716;2023-04-01T01:19:33;9.63;;;4.17;;
13959;SDS011;7052;51.050;3.716;2023-04-01T01:22:29;12.47;;;5.10;;
13959;SDS011;7052;51.050;3.716;2023-04-01T01:25:28;8.47;;;4.37;;
13959;SDS011;7052;51.050;3.716;2023-04-01T01:28:03;10.20;;;4.50;;
13959;SDS011;7052;51.050;3.716;2023-04-01T01:30:51;9.30;;;4.27;;
13959;SDS011;7052;51.050;3.716;2023-04-01T01:33:47;10.07;;;4.27;;
13959;SDS011;7052;51.050;3.716;2023-04-01T01:36:24;9.20;;;4.27;;
13959;SDS011;7052;51.050;3.716;2023-04-01T01:38:59;9.60;;;4.43;;
13959;SDS011;7052;51.050;3.716;2023-04-01T01:41:27;10.83;;;4.60;;
13959;SDS011;7052;51.050;3.716;2023-04-01T01:43:56;10.60;;;3.93;;
13959;SDS011;7052;51.050;3.716;2023-04-01T01:46:27;9.70;;;4.33;;
13959;SDS011;7052;51.050;3.716;2023-04-01T01:48:56;11.00;;;4.23;;
13959;SDS011;7052;51.050;3.716;2023-04-01T01:51:29;9.27;;;4.30;;
13959;SDS011;7052;51.050;3.716;2023-04-01T01:53:58;12.70;;;4.30;;
13959;SDS011;7052;51.050;3.716;2023-04-01T01:56:26;9.43;;;4.10;;
13959;SDS011;7052;51.050;3.716;2023-04-01T01:58:57;8.80;;;3.60;;
13959;SDS011;7052;51.050;3.716;2023-04-01T02:01:31;9.00;;;4.53;;
13959;SDS011;7052;51.050;3.716;2023-04-01T02:04:02;12.80;;;4.47;;
13959;SDS011;7052;51.050;3.716;2023-04-01T02:06:32;9.57;;;3.70;;
13959;SDS011;7052;51.050;3.716;2023-04-01T02:09:03;7.57;;;3.90;;
13959;SDS011;7052;51.050;3.716;2023-04-01T02:11:36;7.83;;;3.80;;
13959;SDS011;7052;51.050;3.716;2023-04-01T02:14:07;7.10;;;3.73;;
13959;SDS011;7052;51.050;3.716;2023-04-01T02:16:38;8.27;;;4.47;;
13959;SDS011;7052;51.050;3.716;2023-04-01T02:19:09;10.03;;;4.03;;
13959;SDS011;7052;51.050;3.716;2023-04-01T02:21:39;10.83;;;4.37;;
13959;SDS011;7052;51.050;3.716;2023-04-01T02:24:10;9.53;;;4.80;;
13959;SDS011;7052;51.050;3.716;2023-04-01T02:26:40;8.57;;;4.27;;
13959;SDS011;7052;51.050;3.716;2023-04-01T02:29:07;11.27;;;4.40;;
13959;SDS011;7052;51.050;3.716;2023-04-01T02:31:37;13.10;;;4.90;;
13959;SDS011;7052;51.050;3.716;2023-04-01T02:34:05;10.20;;;4.37;;
13959;SDS011;7052;51.050;3.716;2023-04-01T02:36:34;9.63;;;4.50;;
13959;SDS011;7052;51.050;3.716;2023-04-01T02:39:03;12.30;;;4.37;;
13959;SDS011;7052;51.050;3.716;2023-04-01T02:41:38;8.50;;;4.20;;
13959;SDS011;7052;51.050;3.716;2023-04-01T02:44:05;10.00;;;4.47;;
13959;SDS011;7052;51.050;3.716;2023-04-01T02:46:32;9.57;;;4.20;;
13959;SDS011;7052;51.050;3.716;2023-04-01T02:48:59;7.87;;;4.23;;
13959;SDS011;7052;51.050;3.716;2023-04-01T02:51:27;11.10;;;4.97;;
13959;SDS011;7052;51.050;3.716;2023-04-01T02:53:54;9.53;;;4.63;;
13959;SDS011;7052;51.050;3.716;2023-04-01T02:56:22;9.60;;;4.77;;
13959;SDS011;7052;51.050;3.716;2023-04-01T02:58:51;7.97;;;3.47;;
13959;SDS011;7052;51.050;3.716;2023-04-01T03:01:19;9.33;;;4.60;;
13959;SDS011;7052;51.050;3.716;2023-04-01T03:03:46;9.50;;;4.87;;
13959;SDS011;7052;51.050;3.716;2023-04-01T03:06:15;9.33;;;4.13;;
13959;SDS011;7052;51.050;3.716;2023-04-01T03:08:43;10.70;;;4.63;;
13959;SDS011;7052;51.050;3.716;2023-04-01T03:11:10;9.47;;;4.40;;
13959;SDS011;7052;51.050;3.716;2023-04-01T03:13:38;9.50;;;4.53;;
13959;SDS011;7052;51.050;3.716;2023-04-01T03:16:05;8.40;;;4.40;;
13959;SDS011;7052;51.050;3.716;2023-04-01T03:18:34;10.23;;;4.30;;
13959;SDS011;7052;51.050;3.716;2023-04-01T03:23:44;8.30;;;4.67;;
13959;SDS011;7052;51.050;3.716;2023-04-01T03:26:12;7.00;;;4.30;;
13959;SDS011;7052;51.050;3.716;2023-04-01T03:28:41;6.40;;;3.83;;
13959;SDS011;7052;51.050;3.716;2023-04-01T03:31:09;8.20;;;4.07;;
13959;SDS011;7052;51.050;3.716;2023-04-01T03:33:36;5.97;;;3.60;;
13959;SDS011;7052;51.050;3.716;2023-04-01T03:36:06;5.47;;;3.60;;
13959;SDS011;7052;51.050;3.716;2023-04-01T03:38:33;5.87;;;3.03;;
13959;SDS011;7052;51.050;3.716;2023-04-01T03:41:03;6.07;;;3.23;;
13959;SDS011;7052;51.050;3.716;2023-04-01T03:43:31;3.20;;;2.83;;
13959;SDS011;7052;51.050;3.716;2023-04-01T03:46:02;5.43;;;3.00;;
13959;SDS011;7052;51.050;3.716;2023-04-01T03:48:29;3.60;;;2.70;;
13959;SDS011;7052;51.050;3.716;2023-04-01T03:50:55;4.03;;;2.97;;
13959;SDS011;7052;51.050;3.716;2023-04-01T03:53:22;4.27;;;2.97;;
13959;SDS011;7052;51.050;3.716;2023-04-01T03:55:49;4.97;;;2.70;;
13959;SDS011;7052;51.050;3.716;2023-04-01T03:58:17;4.17;;;2.87;;
13959;SDS011;7052;51.050;3.716;2023-04-01T04:00:45;4.17;;;3.13;;
13959;SDS011;7052;51.050;3.716;2023-04-01T04:03:13;4.03;;;2.83;;
13959;SDS011;7052;51.050;3.716;2023-04-01T04:05:45;3.23;;;2.90;;
13959;SDS011;7052;51.050;3.716;2023-04-01T04:08:13;4.10;;;2.90;;
13959;SDS011;7052;51.050;3.716;2023-04-01T04:10:40;4.10;;;2.83;;
13959;SDS011;7052;51.050;3.716;2023-04-01T04:13:08;3.87;;;2.90;;
13959;SDS011;7052;51.050;3.716;2023-04-01T04:15:36;4.87;;;3.40;;
13959;SDS011;7052;51.050;3.716;2023-04-01T04:18:05;4.70;;;3.40;;
13959;SDS011;7052;51.050;3.716;2023-04-01T04:20:33;4.00;;;2.90;;
13959;SDS011;7052;51.050;3.716;2023-04-01T04:23:00;3.93;;;3.23;;
13959;SDS011;7052;51.050;3.716;2023-04-01T04:25:31;3.40;;;3.00;;
13959;SDS011;7052;51.050;3.716;2023-04-01T04:27:58;3.97;;;2.80;;
13959;SDS011;7052;51.050;3.716;2023-04-01T04:30:27;3.83;;;2.83;;
13959;SDS011;7052;51.050;3.716;2023-04-01T04:32:54;4.03;;;3.17;;
13959;SDS011;7052;51.050;3.716;2023-04-01T04:35:21;4.23;;;3.53;;
13959;SDS011;7052;51.050;3.716;2023-04-01T04:37:52;4.30;;;3.60;;
13959;SDS011;7052;51.050;3.716;2023-04-01T04:40:19;4.03;;;3.60;;
13959;SDS011;7052;51.050;3.716;2023-04-01T04:42:48;4.33;;;3.93;;
13959;SDS011;7052;51.050;3.716;2023-04-01T04:45:15;6.27;;;4.23;;
13959;SDS011;7052;51.050;3.716;2023-04-01T04:47:43;7.33;;;4.73;;
13959;SDS011;7052;51.050;3.716;2023-04-01T04:50:10;6.70;;;4.57;;
13959;SDS011;7052;51.050;3.716;2023-04-01T04:52:41;7.70;;;4.87;;
13959;SDS011;7052;51.050;3.716;2023-04-01T04:55:10;7.40;;;4.93;;
13959;SDS011;7052;51.050;3.716;2023-04-01T04:57:38;9.00;;;5.20;;
13959;SDS011;7052;51.050;3.716;2023-04-01T05:00:06;8.40;;;4.23;;
13959;SDS011;7052;51.050;3.716;2023-04-01T05:02:36;9.37;;;5.23;;
13959;SDS011;7052;51.050;3.716;2023-04-01T05:05:03;8.93;;;5.37;;
13959;SDS011;7052;51.050;3.716;2023-04-01T05:07:33;8.10;;;5.47;;
13959;SDS011;7052;51.050;3.716;2023-04-01T05:10:01;8.03;;;5.53;;
13959;SDS011;7052;51.050;3.716;2023-04-01T05:12:31;6.47;;;4.93;;
13959;SDS011;7052;51.050;3.716;2023-04-01T05:15:01;6.30;;;4.47;;
13959;SDS011;7052;51.050;3.716;2023-04-01T05:17:30;7.63;;;4.63;;
13959;SDS011;7052;51.050;3.716;2023-04-01T05:19:57;6.50;;;4.57;;
13959;SDS011;7052;51.050;3.716;2023-04-01T05:22:26;5.90;;;4.10;;
13959;SDS011;7052;51.050;3.716;2023-04-01T05:24:53;6.23;;;4.47;;
13959;SDS011;7052;51.050;3.716;2023-04-01T05:27:20;5.47;;;4.87;;
13959;SDS011;7052;51.050;3.716;2023-04-01T05:29:49;6.10;;;4.23;;
13959;SDS011;7052;51.050;3.716;2023-04-01T05:32:16;5.93;;;4.57;;
13959;SDS011;7052;51.050;3.716;2023-04-01T05:34:43;5.97;;;4.20;;
13959;SDS011;7052;51.050;3.716;2023-04-01T05:37:10;7.40;;;5.20;;
13959;SDS011;7052;51.050;3.716;2023-04-01T05:39:37;4.93;;;4.00;;
13959;SDS011;7052;51.050;3.716;2023-04-01T05:42:05;7.33;;;4.87;;
13959;SDS011;7052;51.050;3.716;2023-04-01T05:44:33;6.53;;;3.83;;
13959;SDS011;7052;51.050;3.716;2023-04-01T05:47:03;5.20;;;4.00;;
13959;SDS011;7052;51.050;3.716;2023-04-01T05:49:30;6.30;;;4.00;;
13959;SDS011;7052;51.050;3.716;2023-04-01T05:51:59;8.30;;;3.77;;
13959;SDS011;7052;51.050;3.716;2023-04-01T05:54:26;4.97;;;3.40;;
13959;SDS011;7052;51.050;3.716;2023-04-01T05:56:52;3.43;;;2.67;;
13959;SDS011;7052;51.050;3.716;2023-04-01T05:59:21;3.40;;;2.00;;
13959;SDS011;7052;51.050;3.716;2023-04-01T06:01:48;3.10;;;1.93;;
13959;SDS011;7052;51.050;3.716;2023-04-01T06:04:17;4.70;;;2.63;;
13959;SDS011;7052;51.050;3.716;2023-04-01T06:06:48;3.90;;;2.27;;
13959;SDS011;7052;51.050;3.716;2023-04-01T06:09:17;3.73;;;2.70;;
13959;SDS011;7052;51.050;3.716;2023-04-01T06:11:56;3.17;;;2.30;;
13959;SDS011;7052;51.050;3.716;2023-04-01T06:14:39;2.63;;;2.40;;
13959;SDS011;7052;51.050;3.716;2023-04-01T06:17:19;3.20;;;2.20;;
13959;SDS011;7052;51.050;3.716;2023-04-01T06:19:57;3.20;;;2.43;;
13959;SDS011;7052;51.050;3.716;2023-04-01T06:22:40;3.10;;;2.30;;
13959;SDS011;7052;51.050;3.716;2023-04-01T06:28:44;3.33;;;2.17;;
13959;SDS011;7052;51.050;3.716;2023-04-01T06:31:44;4.57;;;2.23;;
13959;SDS011;7052;51.050;3.716;2023-04-01T06:34:27;2.70;;;1.87;;
13959;SDS011;7052;51.050;3.716;2023-04-01T06:37:13;3.00;;;2.00;;
13959;SDS011;7052;51.050;3.716;2023-04-01T06:39:58;2.37;;;1.80;;
13959;SDS011;7052;51.050;3.716;2023-04-01T06:42:55;2.57;;;1.53;;
13959;SDS011;7052;51.050;3.716;2023-04-01T06:45:31;2.53;;;1.80;;
13959;SDS011;7052;51.050;3.716;2023-04-01T06:48:08;2.27;;;1.80;;
13959;SDS011;7052;51.050;3.716;2023-04-01T06:50:45;2.33;;;1.67;;
13959;SDS011;7052;51.050;3.716;2023-04-01T06:53:25;2.20;;;1.60;;
13959;SDS011;7052;51.050;3.716;2023-04-01T06:56:05;2.20;;;1.70;;
13959;SDS011;7052;51.050;3.716;2023-04-01T06:58:37;2.50;;;1.70;;
13959;SDS011;7052;51.050;3.716;2023-04-01T07:01:14;1.90;;;1.43;;
13959;SDS011;7052;51.050;3.716;2023-04-01T07:03:47;1.70;;;1.33;;
13959;SDS011;7052;51.050;3.716;2023-04-01T07:06:23;2.33;;;1.60;;
13959;SDS011;7052;51.050;3.716;2023-04-01T07:08:57;1.97;;;1.70;;
13959;SDS011;7052;51.050;3.716;2023-04-01T07:11:28;1.77;;;1.50;;
13959;SDS011;7052;51.050;3.716;2023-04-01T07:13:58;2.40;;;1.50;;
13959;SDS011;7052;51.050;3.716;2023-04-01T07:16:33;2.47;;;1.90;;
13959;SDS011;7052;51.050;3.716;2023-04-01T07:19:05;4.73;;;2.00;;
13959;SDS011;7052;51.050;3.716;2023-04-01T07:21:38;3.90;;;1.90;;
13959;SDS011;7052;51.050;3.716;2023-04-01T07:24:13;2.50;;;1.70;;
13959;SDS011;7052;51.050;3.716;2023-04-01T07:26:47;1.97;;;1.37;;
13959;SDS011;7052;51.050;3.716;2023-04-01T07:29:19;1.90;;;1.23;;
13959;SDS011;7052;51.050;3.716;2023-04-01T07:31:49;1.50;;;1.30;;
13959;SDS011;7052;51.050;3.716;2023-04-01T07:34:31;2.40;;;1.40;;
13959;SDS011;7052;51.050;3.716;2023-04-01T07:37:06;6.03;;;1.50;;
13959;SDS011;7052;51.050;3.716;2023-04-01T07:39:41;2.33;;;1.60;;
13959;SDS011;7052;51.050;3.716;2023-04-01T07:42:19;2.90;;;1.73;;
13959;SDS011;7052;51.050;3.716;2023-04-01T07:44:54;2.67;;;2.00;;
13959;SDS011;7052;51.050;3.716;2023-04-01T07:47:34;2.10;;;1.70;;
13959;SDS011;7052;51.050;3.716;2023-04-01T07:50:19;2.30;;;1.60;;
13959;SDS011;7052;51.050;3.716;2023-04-01T07:52:55;2.17;;;1.83;;
13959;SDS011;7052;51.050;3.716;2023-04-01T07:55:35;3.30;;;1.80;;
13959;SDS011;7052;51.050;3.716;2023-04-01T07:58:08;2.33;;;1.67;;
13959;SDS011;7052;51.050;3.716;2023-04-01T08:00:45;4.53;;;1.93;;
13959;SDS011;7052;51.050;3.716;2023-04-01T08:03:25;3.07;;;1.90;;
13959;SDS011;7052;51.050;3.716;2023-04-01T08:06:12;4.23;;;1.80;;
13959;SDS011;7052;51.050;3.716;2023-04-01T08:08:48;2.97;;;1.87;;
13959;SDS011;7052;51.050;3.716;2023-04-01T08:11:30;3.67;;;2.07;;
13959;SDS011;7052;51.050;3.716;2023-04-01T08:14:12;2.23;;;1.80;;
13959;SDS011;7052;51.050;3.716;2023-04-01T08:16:52;2.60;;;2.00;;
13959;SDS011;7052;51.050;3.716;2023-04-01T08:19:30;2.60;;;2.13;;
13959;SDS011;7052;51.050;3.716;2023-04-01T08:22:08;3.07;;;1.80;;
13959;SDS011;7052;51.050;3.716;2023-04-01T08:24:41;5.77;;;2.23;;
13959;SDS011;7052;51.050;3.716;2023-04-01T08:27:11;2.43;;;2.07;;
13959;SDS011;7052;51.050;3.716;2023-04-01T08:29:47;2.83;;;2.20;;
13959;SDS011;7052;51.050;3.716;2023-04-01T08:32:18;2.57;;;2.10;;
13959;SDS011;7052;51.050;3.716;2023-04-01T08:34:54;6.23;;;2.40;;
13959;SDS011;7052;51.050;3.716;2023-04-01T08:37:30;6.10;;;2.50;;
13959;SDS011;7052;51.050;3.716;2023-04-01T08:40:08;4.83;;;2.80;;
13959;SDS011;7052;51.050;3.716;2023-04-01T08:43:07;5.63;;;2.90;;
13959;SDS011;7052;51.050;3.716;2023-04-01T08:45:48;5.87;;;2.70;;
13959;SDS011;7052;51.050;3.716;2023-04-01T08:48:31;5.60;;;3.60;;
13959;SDS011;7052;51.050;3.716;2023-04-01T08:51:16;5.93;;;2.57;;
13959;SDS011;7052;51.050;3.716;2023-04-01T08:54:10;5.50;;;2.47;;
13959;SDS011;7052;51.050;3.716;2023-04-01T08:56:55;6.73;;;2.70;;
13959;SDS011;7052;51.050;3.716;2023-04-01T08:59:35;4.97;;;2.37;;
13959;SDS011;7052;51.050;3.716;2023-04-01T09:02:23;4.50;;;2.53;;
13959;SDS011;7052;51.050;3.716;2023-04-01T09:08:11;3.67;;;2.30;;
13959;SDS011;7052;51.050;3.716;2023-04-01T09:11:11;3.97;;;2.20;;
13959;SDS011;7052;51.050;3.716;2023-04-01T09:17:04;2.97;;;1.57;;
13959;SDS011;7052;51.050;3.716;2023-04-01T09:19:47;2.00;;;1.30;;
13959;SDS011;7052;51.050;3.716;2023-04-01T09:22:43;1.80;;;1.40;;
13959;SDS011;7052;51.050;3.716;2023-04-01T09:28:26;4.60;;;1.73;;
13959;SDS011;7052;51.050;3.716;2023-04-01T09:31:08;3.60;;;1.70;;
13959;SDS011;7052;51.050;3.716;2023-04-01T09:36:43;2.47;;;1.27;;
13959;SDS011;7052;51.050;3.716;2023-04-01T09:42:15;2.07;;;1.40;;
13959;SDS011;7052;51.050;3.716;2023-04-01T09:45:15;2.27;;;1.47;;
13959;SDS011;7052;51.050;3.716;2023-04-01T09:47:55;2.33;;;1.50;;
13959;SDS011;7052;51.050;3.716;2023-04-01T09:50:44;2.40;;;1.50;;
13959;SDS011;7052;51.050;3.716;2023-04-01T09:53:26;4.77;;;1.90;;
13959;SDS011;7052;51.050;3.716;2023-04-01T09:56:19;5.13;;;2.07;;
13959;SDS011;7052;51.050;3.716;2023-04-01T09:59:26;2.20;;;1.57;;
13959;SDS011;7052;51.050;3.716;2023-04-01T10:11:50;2.50;;;1.37;;
13959;SDS011;7052;51.050;3.716;2023-04-01T10:18:02;3.43;;;1.80;;
13959;SDS011;7052;51.050;3.716;2023-04-01T10:20:54;2.53;;;1.70;;
13959;SDS011;7052;51.050;3.716;2023-04-01T10:23:41;4.07;;;2.00;;
13959;SDS011;7052;51.050;3.716;2023-04-01T10:26:24;5.43;;;2.37;;
13959;SDS011;7052;51.050;3.716;2023-04-01T10:29:11;4.00;;;1.83;;
13959;SDS011;7052;51.050;3.716;2023-04-01T10:32:08;2.73;;;1.70;;
13959;SDS011;7052;51.050;3.716;2023-04-01T10:41:20;3.37;;;1.50;;
13959;SDS011;7052;51.050;3.716;2023-04-01T10:53:35;2.07;;;1.27;;
13959;SDS011;7052;51.050;3.716;2023-04-01T10:56:32;1.93;;;1.33;;
13959;SDS011;7052;51.050;3.716;2023-04-01T11:02:26;1.90;;;1.20;;
13959;SDS011;7052;51.050;3.716;2023-04-01T11:05:31;1.93;;;1.30;;
13959;SDS011;7052;51.050;3.716;2023-04-01T11:14:26;2.37;;;1.43;;
13959;SDS011;7052;51.050;3.716;2023-04-01T11:17:29;1.77;;;1.30;;
13959;SDS011;7052;51.050;3.716;2023-04-01T11:24:00;1.87;;;1.37;;
13959;SDS011;7052;51.050;3.716;2023-04-01T11:26:51;2.97;;;1.30;;
13959;SDS011;7052;51.050;3.716;2023-04-01T11:32:37;2.27;;;1.53;;
13959;SDS011;7052;51.050;3.716;2023-04-01T11:35:23;3.87;;;1.53;;
13959;SDS011;7052;51.050;3.716;2023-04-01T11:38:17;2.30;;;2.00;;
13959;SDS011;7052;51.050;3.716;2023-04-01T11:40:54;1.70;;;1.60;;
13959;SDS011;7052;51.050;3.716;2023-04-01T11:43:30;4.13;;;1.77;;
13959;SDS011;7052;51.050;3.716;2023-04-01T11:46:05;3.33;;;1.97;;
13959;SDS011;7052;51.050;3.716;2023-04-01T11:48:41;2.83;;;1.90;;
13959;SDS011;7052;51.050;3.716;2023-04-01T11:51:30;3.37;;;1.80;;
13959;SDS011;7052;51.050;3.716;2023-04-01T11:54:06;2.90;;;2.07;;
13959;SDS011;7052;51.050;3.716;2023-04-01T11:56:51;2.77;;;1.70;;
13959;SDS011;7052;51.050;3.716;2023-04-01T11:59:44;2.97;;;2.00;;
13959;SDS011;7052;51.050;3.716;2023-04-01T12:02:25;3.10;;;1.70;;
13959;SDS011;7052;51.050;3.716;2023-04-01T12:08:18;3.53;;;2.13;;
13959;SDS011;7052;51.050;3.716;2023-04-01T12:10:59;4.10;;;2.53;;
13959;SDS011;7052;51.050;3.716;2023-04-01T12:13:35;5.90;;;2.43;;
13959;SDS011;7052;51.050;3.716;2023-04-01T12:19:09;4.40;;;2.60;;
13959;SDS011;7052;51.050;3.716;2023-04-01T12:21:45;6.63;;;2.70;;
13959;SDS011;7052;51.050;3.716;2023-04-01T12:24:42;2.93;;;2.20;;
13959;SDS011;7052;51.050;3.716;2023-04-01T12:27:16;3.40;;;1.90;;
13959;SDS011;7052;51.050;3.716;2023-04-01T12:30:02;3.33;;;2.10;;
13959;SDS011;7052;51.050;3.716;2023-04-01T12:32:40;2.90;;;2.27;;
13959;SDS011;7052;51.050;3.716;2023-04-01T12:35:17;5.10;;;2.20;;
13959;SDS011;7052;51.050;3.716;2023-04-01T12:37:50;3.70;;;2.17;;
13959;SDS011;7052;51.050;3.716;2023-04-01T12:40:35;4.20;;;1.80;;
13959;SDS011;7052;51.050;3.716;2023-04-01T12:43:27;2.80;;;2.00;;
13959;SDS011;7052;51.050;3.716;2023-04-01T12:46:08;4.13;;;2.13;;
13959;SDS011;7052;51.050;3.716;2023-04-01T12:49:05;2.87;;;1.93;;
13959;SDS011;7052;51.050;3.716;2023-04-01T12:57:59;2.97;;;1.70;;
13959;SDS011;7052;51.050;3.716;2023-04-01T13:00:58;2.17;;;1.70;;
13959;SDS011;7052;51.050;3.716;2023-04-01T13:03:44;1.30;;;1.20;;
13959;SDS011;7052;51.050;3.716;2023-04-01T13:06:23;1.43;;;1.30;;
13959;SDS011;7052;51.050;3.716;2023-04-01T13:09:23;4.70;;;1.80;;
13959;SDS011;7052;51.050;3.716;2023-04-01T13:12:04;3.40;;;1.50;;
13959;SDS011;7052;51.050;3.716;2023-04-01T13:15:02;3.43;;;1.73;;
13959;SDS011;7052;51.050;3.716;2023-04-01T13:17:49;4.80;;;1.60;;
13959;SDS011;7052;51.050;3.716;2023-04-01T13:20:22;2.10;;;1.40;;
13959;SDS011;7052;51.050;3.716;2023-04-01T13:22:59;3.27;;;1.40;;
13959;SDS011;7052;51.050;3.716;2023-04-01T13:25:36;2.53;;;1.47;;
13959;SDS011;7052;51.050;3.716;2023-04-01T13:28:13;1.63;;;1.50;;
13959;SDS011;7052;51.050;3.716;2023-04-01T13:30:49;1.20;;;1.10;;
13959;SDS011;7052;51.050;3.716;2023-04-01T13:33:26;2.33;;;1.40;;
13959;SDS011;7052;51.050;3.716;2023-04-01T13:36:07;3.03;;;1.40;;
13959;SDS011;7052;51.050;3.716;2023-04-01T13:41:50;1.60;;;1.20;;
13959;SDS011;7052;51.050;3.716;2023-04-01T13:44:28;1.70;;;1.50;;
13959;SDS011;7052;51.050;3.716;2023-04-01T13:50:23;3.33;;;1.50;;
13959;SDS011;7052;51.050;3.716;2023-04-01T13:53:14;2.00;;;1.30;;
13959;SDS011;7052;51.050;3.716;2023-04-01T13:56:07;1.60;;;1.27;;
13959;SDS011;7052;51.050;3.716;2023-04-01T13:58:43;2.73;;;1.20;;
13959;SDS011;7052;51.050;3.716;2023-04-01T14:01:29;2.97;;;1.40;;
13959;SDS011;7052;51.050;3.716;2023-04-01T14:04:13;2.97;;;1.53;;
13959;SDS011;7052;51.050;3.716;2023-04-01T14:07:00;4.53;;;1.43;;
13959;SDS011;7052;51.050;3.716;2023-04-01T14:12:39;2.43;;;1.13;;
13959;SDS011;7052;51.050;3.716;2023-04-01T14:15:25;2.03;;;1.00;;
13959;SDS011;7052;51.050;3.716;2023-04-01T14:18:15;2.37;;;1.30;;
13959;SDS011;7052;51.050;3.716;2023-04-01T14:21:03;1.20;;;1.00;;
13959;SDS011;7052;51.050;3.716;2023-04-01T14:23:48;2.33;;;1.67;;
13959;SDS011;7052;51.050;3.716;2023-04-01T14:26:44;1.40;;;1.30;;
13959;SDS011;7052;51.050;3.716;2023-04-01T14:29:28;2.27;;;1.30;;
13959;SDS011;7052;51.050;3.716;2023-04-01T14:32:06;2.47;;;1.43;;
13959;SDS011;7052;51.050;3.716;2023-04-01T14:34:41;3.70;;;1.70;;
13959;SDS011;7052;51.050;3.716;2023-04-01T14:37:28;2.63;;;1.43;;
13959;SDS011;7052;51.050;3.716;2023-04-01T14:40:26;3.13;;;1.80;;
13959;SDS011;7052;51.050;3.716;2023-04-01T14:42:56;2.30;;;1.50;;
13959;SDS011;7052;51.050;3.716;2023-04-01T14:45:45;2.50;;;1.60;;
13959;SDS011;7052;51.050;3.716;2023-04-01T14:48:25;2.70;;;1.83;;
13959;SDS011;7052;51.050;3.716;2023-04-01T14:51:02;1.77;;;1.50;;
13959;SDS011;7052;51.050;3.716;2023-04-01T14:56:42;2.40;;;1.40;;
13959;SDS011;7052;51.050;3.716;2023-04-01T14:59:14;2.87;;;1.53;;
13959;SDS011;7052;51.050;3.716;2023-04-01T15:01:55;3.03;;;1.50;;
13959;SDS011;7052;51.050;3.716;2023-04-01T15:04:41;1.77;;;1.53;;
13959;SDS011;7052;51.050;3.716;2023-04-01T15:10:31;3.03;;;1.60;;
13959;SDS011;7052;51.050;3.716;2023-04-01T15:13:28;2.50;;;1.40;;
13959;SDS011;7052;51.050;3.716;2023-04-01T15:16:11;1.87;;;1.30;;
13959;SDS011;7052;51.050;3.716;2023-04-01T15:18:47;4.97;;;2.53;;
13959;SDS011;7052;51.050;3.716;2023-04-01T15:21:27;1.73;;;1.43;;
13959;SDS011;7052;51.050;3.716;2023-04-01T15:24:29;3.30;;;1.70;;
13959;SDS011;7052;51.050;3.716;2023-04-01T15:27:10;3.00;;;1.50;;
13959;SDS011;7052;51.050;3.716;2023-04-01T15:29:56;3.00;;;1.47;;
13959;SDS011;7052;51.050;3.716;2023-04-01T15:32:39;3.97;;;1.73;;
13959;SDS011;7052;51.050;3.716;2023-04-01T15:35:19;2.60;;;1.90;;
13959;SDS011;7052;51.050;3.716;2023-04-01T15:37:58;2.43;;;1.60;;
13959;SDS011;7052;51.050;3.716;2023-04-01T15:40:33;3.40;;;1.60;;
13959;SDS011;7052;51.050;3.716;2023-04-01T15:43:12;2.43;;;1.57;;
13959;SDS011;7052;51.050;3.716;2023-04-01T15:45:51;3.03;;;1.60;;
13959;SDS011;7052;51.050;3.716;2023-04-01T15:48:38;27.83;;;22.20;;
13959;SDS011;7052;51.050;3.716;2023-04-01T15:54:22;3.60;;;1.67;;
13959;SDS011;7052;51.050;3.716;2023-04-01T15:57:00;2.33;;;1.50;;
13959;SDS011;7052;51.050;3.716;2023-04-01T15:59:41;2.33;;;1.63;;
13959;SDS011;7052;51.050;3.716;2023-04-01T16:02:34;3.53;;;1.70;;
13959;SDS011;7052;51.050;3.716;2023-04-01T16:05:34;4.97;;;1.80;;
13959;SDS011;7052;51.050;3.716;2023-04-01T16:08:35;3.93;;;1.83;;
13959;SDS011;7052;51.050;3.716;2023-04-01T16:11:37;2.93;;;1.83;;
13959;SDS011;7052;51.050;3.716;2023-04-01T16:14:50;2.73;;;1.87;;
13959;SDS011;7052;51.050;3.716;2023-04-01T16:20:34;3.30;;;1.60;;
13959;SDS011;7052;51.050;3.716;2023-04-01T16:23:14;2.67;;;1.80;;
13959;SDS011;7052;51.050;3.716;2023-04-01T16:25:57;2.50;;;1.83;;
13959;SDS011;7052;51.050;3.716;2023-04-01T16:28:36;3.47;;;2.30;;
13959;SDS011;7052;51.050;3.716;2023-04-01T16:31:37;3.43;;;1.87;;
13959;SDS011;7052;51.050;3.716;2023-04-01T16:34:16;3.33;;;1.80;;
13959;SDS011;7052;51.050;3.716;2023-04-01T16:36:58;2.90;;;1.80;;
13959;SDS011;7052;51.050;3.716;2023-04-01T16:39:33;3.97;;;2.10;;
13959;SDS011;7052;51.050;3.716;2023-04-01T16:42:13;4.03;;;2.13;;
13959;SDS011;7052;51.050;3.716;2023-04-01T16:45:08;4.60;;;3.00;;
13959;SDS011;7052;51.050;3.716;2023-04-01T16:47:48;3.57;;;2.20;;
13959;SDS011;7052;51.050;3.716;2023-04-01T16:50:20;3.47;;;2.17;;
13959;SDS011;7052;51.050;3.716;2023-04-01T16:52:56;3.67;;;2.10;;
13959;SDS011;7052;51.050;3.716;2023-04-01T16:55:34;3.43;;;2.10;;
13959;SDS011;7052;51.050;3.716;2023-04-01T16:58:09;3.20;;;2.20;;
13959;SDS011;7052;51.050;3.716;2023-04-01T17:00:47;4.50;;;2.30;;
13959;SDS011;7052;51.050;3.716;2023-04-01T17:03:16;5.77;;;2.80;;
13959;SDS011;7052;51.050;3.716;2023-04-01T17:11:55;3.73;;;2.70;;
13959;SDS011;7052;51.050;3.716;2023-04-01T17:14:32;4.83;;;2.60;;
13959;SDS011;7052;51.050;3.716;2023-04-01T17:17:15;5.47;;;2.83;;
13959;SDS011;7052;51.050;3.716;2023-04-01T17:22:53;2.97;;;2.17;;
13959;SDS011;7052;51.050;3.716;2023-04-01T17:28:34;2.20;;;2.00;;
13959;SDS011;7052;51.050;3.716;2023-04-01T17:31:13;2.90;;;2.57;;
13959;SDS011;7052;51.050;3.716;2023-04-01T17:34:12;3.67;;;2.57;;
13959;SDS011;7052;51.050;3.716;2023-04-01T17:37:00;2.80;;;1.87;;
13959;SDS011;7052;51.050;3.716;2023-04-01T17:39:46;3.93;;;2.70;;
13959;SDS011;7052;51.050;3.716;2023-04-01T17:42:33;4.13;;;2.50;;
13959;SDS011;7052;51.050;3.716;2023-04-01T17:45:09;4.40;;;3.10;;
13959;SDS011;7052;51.050;3.716;2023-04-01T17:50:42;4.93;;;3.37;;
13959;SDS011;7052;51.050;3.716;2023-04-01T17:53:26;5.23;;;3.67;;
13959;SDS011;7052;51.050;3.716;2023-04-01T17:58:55;6.80;;;3.93;;
13959;SDS011;7052;51.050;3.716;2023-04-01T18:01:31;6.50;;;3.90;;